Pribyslav, Czech Republic
Current Conditions -  °F | °C
As of 12:00 AM on Tuesday 27 Jan 2015 (Local Time) from LKCV Reporting Station
Clear Clear  
Wind Chill: 33°   Ceiling: Unl
Heat Index: 37°   Visibility: 6mi
Dew Point: 27°   Wind: 6mph
Humidity: 65%   Direction: 170°S
Pressure: 29.97"   Gusts: NA
Location:  49.58°N, 15.73°E
Report Text: LKCV 262200Z 17005KT 100V220 CAVOK 03/M03 Q1015 NOSIG
Loading
Personal Weather Stations






























Interactive Weather Map New forecast layout! Learn more

10-Day Weather Forecast

Advertisements
Track Severe Weather on mobile